LVBMP ZZZZ-SANT
Flight info
| Callsign | LVBMP |
|---|---|
| Flight time | N/A |
| Altitude | 4000 |
| Route | DCT |
| Aircraft | C208/L-SDFGRY/C |
Departure
| Time | N/A |
|---|---|
| Airport | ZZZZ |
Arrival
| Time | 2026-05-03 21:44 |
|---|---|
| Airport | Teniente Benjamín Matienzo International Airport (SANT) |
| Time | Latitude | Longitude | Altitude | Speed | Heading |
|---|---|---|---|---|---|
| 2026-05-03 21:27 | -26.79563 | -65.31363 | 1912 ft | 0 kts | 99° |
| 2026-05-03 21:28 | -26.79542 | -65.31354 | 1917 ft | 9 kts | 328° |
| 2026-05-03 21:28 | -26.79504 | -65.31414 | 1924 ft | 9 kts | 292° |
| 2026-05-03 21:28 | -26.79523 | -65.31433 | 1927 ft | 2 kts | 105° |
| 2026-05-03 21:28 | -26.79523 | -65.31432 | 1926 ft | 0 kts | 105° |
| 2026-05-03 21:29 | -26.79523 | -65.31430 | 1926 ft | 2 kts | 105° |
| 2026-05-03 21:30 | -26.79574 | -65.31118 | 1891 ft | 76 kts | 98° |
| 2026-05-03 21:30 | -26.79673 | -65.30404 | 2075 ft | 102 kts | 101° |
| 2026-05-03 21:30 | -26.79515 | -65.29635 | 2400 ft | 117 kts | 44° |
| 2026-05-03 21:30 | -26.79378 | -65.29512 | 2452 ft | 122 kts | 30° |
| 2026-05-03 21:31 | -26.78673 | -65.29448 | 2651 ft | 132 kts | 334° |
| 2026-05-03 21:31 | -26.78195 | -65.30244 | 3067 ft | 131 kts | 278° |
| 2026-05-03 21:31 | -26.78402 | -65.31251 | 3237 ft | 146 kts | 226° |
| 2026-05-03 21:31 | -26.79376 | -65.31649 | 3249 ft | 156 kts | 187° |
| 2026-05-03 21:32 | -26.80475 | -65.31700 | 3250 ft | 161 kts | 169° |
| 2026-05-03 21:32 | -26.81392 | -65.31067 | 3326 ft | 158 kts | 124° |
| 2026-05-03 21:32 | -26.81687 | -65.29905 | 3378 ft | 157 kts | 83° |
| 2026-05-03 21:32 | -26.81169 | -65.28866 | 3418 ft | 158 kts | 38° |
| 2026-05-03 21:33 | -26.80428 | -65.28057 | 3469 ft | 158 kts | 75° |
| 2026-05-03 21:33 | -26.80615 | -65.26853 | 3503 ft | 158 kts | 108° |
| 2026-05-03 21:33 | -26.80951 | -65.25673 | 3528 ft | 159 kts | 103° |
| 2026-05-03 21:33 | -26.81210 | -65.24469 | 3559 ft | 159 kts | 100° |
| 2026-05-03 21:34 | -26.81416 | -65.23290 | 3567 ft | 151 kts | 98° |
| 2026-05-03 21:34 | -26.81571 | -65.22160 | 3676 ft | 141 kts | 94° |
| 2026-05-03 21:34 | -26.81685 | -65.21063 | 3614 ft | 147 kts | 95° |
| 2026-05-03 21:34 | -26.81785 | -65.19908 | 3525 ft | 148 kts | 92° |
| 2026-05-03 21:35 | -26.81866 | -65.18783 | 3439 ft | 143 kts | 93° |
| 2026-05-03 21:35 | -26.81940 | -65.17678 | 3290 ft | 141 kts | 92° |
| 2026-05-03 21:35 | -26.81996 | -65.16607 | 3138 ft | 139 kts | 93° |
| 2026-05-03 21:35 | -26.82050 | -65.15520 | 2909 ft | 142 kts | 91° |
| 2026-05-03 21:36 | -26.81883 | -65.14463 | 2791 ft | 137 kts | 65° |
| 2026-05-03 21:36 | -26.81198 | -65.13848 | 2885 ft | 128 kts | 15° |
| 2026-05-03 21:36 | -26.80302 | -65.13765 | 2846 ft | 131 kts | 4° |
| 2026-05-03 21:36 | -26.79421 | -65.13724 | 2887 ft | 124 kts | 4° |
| 2026-05-03 21:37 | -26.78568 | -65.13709 | 2857 ft | 122 kts | 2° |
| 2026-05-03 21:37 | -26.77780 | -65.13692 | 2913 ft | 106 kts | 5° |
| 2026-05-03 21:37 | -26.77060 | -65.13654 | 2954 ft | 102 kts | 5° |
| 2026-05-03 21:37 | -26.76386 | -65.13606 | 3017 ft | 97 kts | 3° |
| 2026-05-03 21:38 | -26.75715 | -65.13617 | 3072 ft | 95 kts | 1° |
| 2026-05-03 21:38 | -26.75059 | -65.13645 | 3097 ft | 95 kts | 4° |
| 2026-05-03 21:38 | -26.74415 | -65.13650 | 3127 ft | 92 kts | 4° |
| 2026-05-03 21:38 | -26.73763 | -65.13649 | 3221 ft | 96 kts | 4° |
| 2026-05-03 21:39 | -26.73090 | -65.13593 | 3286 ft | 103 kts | 6° |
| 2026-05-03 21:39 | -26.72330 | -65.13553 | 3271 ft | 111 kts | 5° |
| 2026-05-03 21:39 | -26.71686 | -65.13233 | 3394 ft | 103 kts | 57° |
| 2026-05-03 21:39 | -26.71645 | -65.12417 | 3318 ft | 113 kts | 103° |
| 2026-05-03 21:40 | -26.71865 | -65.11569 | 3356 ft | 113 kts | 104° |
| 2026-05-03 21:40 | -26.72128 | -65.10733 | 3365 ft | 116 kts | 113° |
| 2026-05-03 21:40 | -26.72610 | -65.10025 | 3430 ft | 114 kts | 134° |
| 2026-05-03 21:40 | -26.73315 | -65.09577 | 3414 ft | 122 kts | 156° |
| 2026-05-03 21:41 | -26.74130 | -65.09291 | 3370 ft | 120 kts | 163° |
| 2026-05-03 21:41 | -26.74935 | -65.09173 | 3228 ft | 114 kts | 170° |
| 2026-05-03 21:41 | -26.75733 | -65.09107 | 3160 ft | 115 kts | 174° |
| 2026-05-03 21:41 | -26.76542 | -65.09131 | 3093 ft | 116 kts | 180° |
| 2026-05-03 21:42 | -26.77341 | -65.09220 | 3002 ft | 114 kts | 183° |
| 2026-05-03 21:42 | -26.78117 | -65.09338 | 2838 ft | 112 kts | 184° |
| 2026-05-03 21:42 | -26.78864 | -65.09477 | 2617 ft | 105 kts | 187° |
| 2026-05-03 21:42 | -26.79565 | -65.09616 | 2425 ft | 99 kts | 188° |
| 2026-05-03 21:43 | -26.80194 | -65.09729 | 2215 ft | 87 kts | 188° |
| 2026-05-03 21:43 | -26.80774 | -65.09822 | 1948 ft | 83 kts | 192° |
| 2026-05-03 21:43 | -26.81325 | -65.09928 | 1765 ft | 78 kts | 191° |
| 2026-05-03 21:43 | -26.81842 | -65.10037 | 1643 ft | 74 kts | 191° |
| 2026-05-03 21:44 | -26.82337 | -65.10134 | 1513 ft | 69 kts | 191° |
| 2026-05-03 21:44 | -26.82776 | -65.10226 | 1488 ft | 59 kts | 191° |
| 2026-05-03 21:44 | -26.83083 | -65.10287 | 1491 ft | 19 kts | 190° |
| 2026-05-03 21:44 | -26.83131 | -65.10363 | 1485 ft | 18 kts | 219° |
| 2026-05-03 21:45 | -26.83237 | -65.10459 | 1480 ft | 14 kts | 221° |
| 2026-05-03 21:45 | -26.83283 | -65.10503 | 1486 ft | 6 kts | 221° |
| 2026-05-03 21:45 | -26.83330 | -65.10547 | 1487 ft | 15 kts | 219° |
| 2026-05-03 21:45 | -26.83445 | -65.10656 | 1485 ft | 26 kts | 219° |
| 2026-05-03 21:46 | -26.83608 | -65.10710 | 1488 ft | 17 kts | 190° |
| 2026-05-03 21:46 | -26.83654 | -65.10733 | 1485 ft | 8 kts | 269° |
| 2026-05-03 21:46 | -26.83649 | -65.10771 | 1491 ft | 1 kts | 291° |
| 2026-05-03 21:46 | -26.83642 | -65.10773 | 1491 ft | 0 kts | 34° |